Aviation Digital Data Service (ADDS)

Output produced by TAFs form (1406 UTC 26 July 2016)
found at http://www.aviationweather.gov/adds/tafs/
 
KDEN 261353Z 25005KT 10SM CLR 22/11 A3016 RMK AO2 SLP125 T02220111
KDEN 261129Z 2612/2718 23012KT P6SM SKC 
     FM261400 24007KT P6SM FEW200 
     FM261900 32008KT P6SM FEW090 SCT150 
     FM270100 20014KT P6SM SCT090 BKN140 
     FM270500 22010KT P6SM FEW100 SCT160 
     FM271300 30008KT P6SM FEW200